Wetterdaten: Mittwoch, 14.11.2007
Datum Zeit Temp. A. Feuchte A. Luftdruck Regen Wind Richtung Richtung Sonnenschein UV Solar Windben
14.11.2007 00:00 1,7 C 92 % 1002,3 hPa 0,0 mm 1,6 km/h (1 Bft) NO 45 0 min 0 UV-I 0 W/m 8,0 km/h (2 Bft)
14.11.2007 00:10 1,5 C 91 % 1002,3 hPa 0,0 mm 1,6 km/h (1 Bft) N-NO 22 0 min 0 UV-I 0 W/m 6,4 km/h (2 Bft)
14.11.2007 00:20 1,3 C 92 % 1002,3 hPa 0,0 mm 1,6 km/h (1 Bft) NO 45 0 min 0 UV-I 0 W/m 8,0 km/h (2 Bft)
14.11.2007 00:30 1,3 C 92 % 1002,4 hPa 0,0 mm 1,6 km/h (1 Bft) N 360 0 min 0 UV-I 0 W/m 8,0 km/h (2 Bft)
14.11.2007 00:40 1,1 C 91 % 1002,4 hPa 0,0 mm 1,6 km/h (1 Bft) N 360 0 min 0 UV-I 0 W/m 6,4 km/h (2 Bft)
14.11.2007 00:50 1,0 C 91 % 1002,4 hPa 0,0 mm 1,6 km/h (1 Bft) N-NO 22 0 min 0 UV-I 0 W/m 4,8 km/h (1 Bft)
14.11.2007 01:00 0,8 C 91 % 1002,4 hPa 0,0 mm 1,6 km/h (1 Bft) N-NO 22 0 min 0 UV-I 0 W/m 4,8 km/h (1 Bft)
14.11.2007 01:10 0,7 C 91 % 1002,5 hPa 0,0 mm 0,0 km/h (0 Bft) N-NO 22 0 min 0 UV-I 0 W/m 1,6 km/h (1 Bft)
14.11.2007 01:20 0,6 C 91 % 1002,5 hPa 0,0 mm 0,0 km/h (0 Bft) N-NO 22 0 min 0 UV-I 0 W/m 1,6 km/h (1 Bft)
14.11.2007 01:30 0,5 C 91 % 1002,6 hPa 0,0 mm 0,0 km/h (0 Bft) N-NO 22 0 min 0 UV-I 0 W/m 1,6 km/h (1 Bft)
14.11.2007 01:40 0,5 C 92 % 1002,6 hPa 0,0 mm 0,0 km/h (0 Bft) N-NO 22 0 min 0 UV-I 0 W/m 1,6 km/h (1 Bft)
14.11.2007 01:50 0,6 C 92 % 1002,6 hPa 0,0 mm 1,6 km/h (1 Bft) N-NO 22 0 min 0 UV-I 0 W/m 3,2 km/h (1 Bft)
14.11.2007 02:00 0,7 C 92 % 1002,7 hPa 0,0 mm 0,0 km/h (0 Bft) N-NO 22 0 min 0 UV-I 0 W/m 1,6 km/h (1 Bft)
14.11.2007 02:10 0,7 C 92 % 1002,8 hPa 0,0 mm 0,0 km/h (0 Bft) N-NO 22 0 min 0 UV-I 0 W/m 1,6 km/h (1 Bft)
14.11.2007 02:20 0,8 C 92 % 1002,9 hPa 0,0 mm 0,0 km/h (0 Bft) N-NO 22 0 min 0 UV-I 0 W/m 3,2 km/h (1 Bft)
14.11.2007 02:30 0,9 C 93 % 1003,1 hPa 0,0 mm 0,0 km/h (0 Bft) N-NO 22 0 min 0 UV-I 0 W/m 3,2 km/h (1 Bft)
14.11.2007 02:40 1,0 C 93 % 1003,2 hPa 0,0 mm 1,6 km/h (1 Bft) N-NO 22 0 min 0 UV-I 0 W/m 4,8 km/h (1 Bft)
14.11.2007 02:50 1,1 C 93 % 1003,2 hPa 0,0 mm 1,6 km/h (1 Bft) N-NO 22 0 min 0 UV-I 0 W/m 4,8 km/h (1 Bft)
14.11.2007 03:00 1,1 C 93 % 1003,3 hPa 0,0 mm 1,6 km/h (1 Bft) N-NO 22 0 min 0 UV-I 0 W/m 3,2 km/h (1 Bft)
14.11.2007 03:10 1,2 C 93 % 1003,4 hPa 0,0 mm 0,0 km/h (0 Bft) N-NO 22 0 min 0 UV-I 0 W/m 3,2 km/h (1 Bft)
14.11.2007 03:20 1,2 C 93 % 1003,5 hPa 0,0 mm 1,6 km/h (1 Bft) N 360 0 min 0 UV-I 0 W/m 4,8 km/h (1 Bft)
14.11.2007 03:30 1,3 C 93 % 1003,6 hPa 0,0 mm 1,6 km/h (1 Bft) N-NW 337 0 min 0 UV-I 0 W/m 4,8 km/h (1 Bft)
14.11.2007 03:40 1,3 C 93 % 1003,7 hPa 0,0 mm 1,6 km/h (1 Bft) N-NW 337 0 min 0 UV-I 0 W/m 6,4 km/h (2 Bft)
14.11.2007 03:50 1,4 C 93 % 1003,9 hPa 0,0 mm 1,6 km/h (1 Bft) N 360 0 min 0 UV-I 0 W/m 8,0 km/h (2 Bft)
14.11.2007 04:00 1,5 C 93 % 1004,1 hPa 0,0 mm 1,6 km/h (1 Bft) N-NO 22 0 min 0 UV-I 0 W/m 8,0 km/h (2 Bft)
14.11.2007 04:10 1,6 C 93 % 1004,2 hPa 0,0 mm 1,6 km/h (1 Bft) N-NO 22 0 min 0 UV-I 0 W/m 6,4 km/h (2 Bft)
14.11.2007 04:20 1,7 C 93 % 1004,2 hPa 0,0 mm 1,6 km/h (1 Bft) N-NO 22 0 min 0 UV-I 0 W/m 4,8 km/h (1 Bft)
14.11.2007 04:30 1,7 C 93 % 1004,3 hPa 0,0 mm 1,6 km/h (1 Bft) N-NO 22 0 min 0 UV-I 0 W/m 8,0 km/h (2 Bft)
14.11.2007 04:40 1,8 C 93 % 1004,4 hPa 0,0 mm 3,2 km/h (1 Bft) N-NO 22 0 min 0 UV-I 0 W/m 9,7 km/h (2 Bft)
14.11.2007 04:50 1,8 C 93 % 1004,5 hPa 0,0 mm 4,8 km/h (1 Bft) N 360 0 min 0 UV-I 0 W/m 9,7 km/h (2 Bft)
14.11.2007 05:00 1,8 C 93 % 1004,7 hPa 0,0 mm 4,8 km/h (1 Bft) N-NO 22 0 min 0 UV-I 0 W/m 17,7 km/h (3 Bft)
14.11.2007 05:10 1,7 C 93 % 1004,9 hPa 0,0 mm 3,2 km/h (1 Bft) N 360 0 min 0 UV-I 0 W/m 11,3 km/h (2 Bft)
14.11.2007 05:20 1,6 C 92 % 1005,0 hPa 0,0 mm 3,2 km/h (1 Bft) N 360 0 min 0 UV-I 0 W/m 8,0 km/h (2 Bft)
14.11.2007 05:30 1,4 C 92 % 1005,2 hPa 0,0 mm 4,8 km/h (1 Bft) N-NO 22 0 min 0 UV-I 0 W/m 9,7 km/h (2 Bft)
14.11.2007 05:40 1,3 C 92 % 1005,2 hPa 0,0 mm 3,2 km/h (1 Bft) N-NO 22 0 min 0 UV-I 0 W/m 9,7 km/h (2 Bft)
14.11.2007 05:50 1,3 C 92 % 1005,5 hPa 0,0 mm 3,2 km/h (1 Bft) N-NO 22 0 min 0 UV-I 0 W/m 9,7 km/h (2 Bft)
14.11.2007 06:00 1,3 C 92 % 1005,6 hPa 0,0 mm 3,2 km/h (1 Bft) N-NO 22 0 min 0 UV-I 0 W/m 6,4 km/h (2 Bft)
14.11.2007 06:10 1,3 C 92 % 1005,6 hPa 0,0 mm 3,2 km/h (1 Bft) N 360 0 min 0 UV-I 0 W/m 9,7 km/h (2 Bft)
14.11.2007 06:20 1,3 C 92 % 1005,8 hPa 0,0 mm 3,2 km/h (1 Bft) N 360 0 min 0 UV-I 0 W/m 9,7 km/h (2 Bft)
14.11.2007 06:30 1,3 C 92 % 1005,9 hPa 0,0 mm 1,6 km/h (1 Bft) N 360 0 min 0 UV-I 0 W/m 9,7 km/h (2 Bft)
14.11.2007 06:40 1,3 C 92 % 1006,0 hPa 0,0 mm 3,2 km/h (1 Bft) W-NW 292 0 min 0 UV-I 0 W/m 11,3 km/h (2 Bft)
14.11.2007 06:50 1,4 C 92 % 1006,2 hPa 0,0 mm 3,2 km/h (1 Bft) N 360 0 min 0 UV-I 0 W/m 9,7 km/h (2 Bft)
14.11.2007 07:00 1,3 C 91 % 1006,4 hPa 0,0 mm 1,6 km/h (1 Bft) N 360 0 min 0 UV-I 0 W/m 6,4 km/h (2 Bft)
14.11.2007 07:10 1,3 C 91 % 1006,5 hPa 0,0 mm 3,2 km/h (1 Bft) N 360 0 min 0 UV-I 0 W/m 11,3 km/h (2 Bft)
14.11.2007 07:20 1,3 C 92 % 1006,6 hPa 0,0 mm 4,8 km/h (1 Bft) N-NO 22 0 min 0 UV-I 0 W/m 11,3 km/h (2 Bft)
14.11.2007 07:30 1,3 C 92 % 1006,9 hPa 0,0 mm 4,8 km/h (1 Bft) N 360 0 min 0 UV-I 0 W/m 14,5 km/h (3 Bft)
14.11.2007 07:40 1,3 C 92 % 1007,1 hPa 0,0 mm 4,8 km/h (1 Bft) N 360 0 min 0 UV-I 0 W/m 12,9 km/h (3 Bft)
14.11.2007 07:50 1,3 C 92 % 1007,2 hPa 0,0 mm 4,8 km/h (1 Bft) N 360 0 min 0 UV-I 0 W/m 19,3 km/h (3 Bft)
14.11.2007 08:00 1,3 C 92 % 1007,5 hPa 0,3 mm 4,8 km/h (1 Bft) N-NO 22 0 min 0 UV-I 5 W/m 16,1 km/h (3 Bft)
14.11.2007 08:10 1,3 C 91 % 1007,6 hPa 0,0 mm 4,8 km/h (1 Bft) N 360 0 min 0 UV-I 11 W/m 14,5 km/h (3 Bft)
14.11.2007 08:20 1,3 C 91 % 1007,8 hPa 0,0 mm 6,4 km/h (2 Bft) N-NO 22 0 min 0 UV-I 11 W/m 16,1 km/h (3 Bft)
14.11.2007 08:30 1,2 C 90 % 1008,0 hPa 0,0 mm 6,4 km/h (2 Bft) N 360 0 min 0 UV-I 21 W/m 17,7 km/h (3 Bft)
14.11.2007 08:40 1,2 C 90 % 1008,2 hPa 0,0 mm 4,8 km/h (1 Bft) N 360 0 min 0 UV-I 23 W/m 11,3 km/h (2 Bft)
14.11.2007 08:50 1,2 C 90 % 1008,4 hPa 0,0 mm 1,6 km/h (1 Bft) N 360 0 min 0 UV-I 16 W/m 9,7 km/h (2 Bft)
14.11.2007 09:00 1,3 C 90 % 1008,5 hPa 0,0 mm 4,8 km/h (1 Bft) N-NO 22 0 min 0 UV-I 16 W/m 11,3 km/h (2 Bft)
14.11.2007 09:10 1,3 C 90 % 1008,8 hPa 0,0 mm 6,4 km/h (2 Bft) N 360 0 min 0 UV-I 25 W/m 19,3 km/h (3 Bft)
14.11.2007 09:20 1,3 C 90 % 1008,9 hPa 0,0 mm 4,8 km/h (1 Bft) N-NO 22 0 min 0 UV-I 44 W/m 16,1 km/h (3 Bft)
14.11.2007 09:30 1,3 C 90 % 1009,1 hPa 0,0 mm 6,4 km/h (2 Bft) N-NO 22 0 min 0 UV-I 60 W/m 16,1 km/h (3 Bft)
14.11.2007 09:40 1,3 C 91 % 1009,2 hPa 0,0 mm 6,4 km/h (2 Bft) N-NO 22 0 min 0 UV-I 91 W/m 17,7 km/h (3 Bft)
14.11.2007 09:50 1,3 C 91 % 1009,3 hPa 0,0 mm 4,8 km/h (1 Bft) N-NO 22 0 min 0 UV-I 54 W/m 11,3 km/h (2 Bft)
14.11.2007 10:00 1,3 C 91 % 1009,5 hPa 0,0 mm 4,8 km/h (1 Bft) N-NO 22 0 min 0 UV-I 60 W/m 16,1 km/h (3 Bft)
14.11.2007 10:10 1,3 C 91 % 1009,8 hPa 0,0 mm 4,8 km/h (1 Bft) N-NO 22 0 min 0 UV-I 102 W/m 11,3 km/h (2 Bft)
14.11.2007 10:20 1,3 C 91 % 1009,8 hPa 0,0 mm 3,2 km/h (1 Bft) N-NO 22 0 min 0 UV-I 107 W/m 9,7 km/h (2 Bft)
14.11.2007 10:30 1,4 C 90 % 1009,9 hPa 0,0 mm 4,8 km/h (1 Bft) N 360 10 min 1 UV-I 299 W/m 14,5 km/h (3 Bft)
14.11.2007 10:40 1,8 C 89 % 1010,1 hPa 0,0 mm 4,8 km/h (1 Bft) N 360 10 min 1 UV-I 206 W/m 16,1 km/h (3 Bft)
14.11.2007 10:50 1,9 C 86 % 1010,2 hPa 0,0 mm 8,0 km/h (2 Bft) N 360 10 min 1 UV-I 292 W/m 19,3 km/h (3 Bft)
14.11.2007 11:00 1,9 C 85 % 1010,5 hPa 0,0 mm 4,8 km/h (1 Bft) N-NO 22 10 min 1 UV-I 220 W/m 16,1 km/h (3 Bft)
14.11.2007 11:10 2,1 C 84 % 1010,7 hPa 0,0 mm 8,0 km/h (2 Bft) N-NO 22 0 min 1 UV-I 137 W/m 20,9 km/h (4 Bft)
14.11.2007 11:20 2,2 C 84 % 1010,8 hPa 0,0 mm 4,8 km/h (1 Bft) N 360 0 min 1 UV-I 102 W/m 16,1 km/h (3 Bft)
14.11.2007 11:30 2,1 C 84 % 1010,7 hPa 0,0 mm 6,4 km/h (2 Bft) N 360 10 min 1 UV-I 369 W/m 17,7 km/h (3 Bft)
14.11.2007 11:40 2,5 C 82 % 1010,7 hPa 0,0 mm 6,4 km/h (2 Bft) N 360 10 min 1 UV-I 404 W/m 22,5 km/h (4 Bft)
14.11.2007 11:50 2,8 C 80 % 1010,8 hPa 0,0 mm 6,4 km/h (2 Bft) N-NO 22 10 min 1 UV-I 420 W/m 16,1 km/h (3 Bft)
14.11.2007 12:00 2,6 C 80 % 1010,8 hPa 0,0 mm 9,7 km/h (2 Bft) N 360 10 min 1 UV-I 401 W/m 22,5 km/h (4 Bft)
14.11.2007 12:10 2,8 C 79 % 1010,8 hPa 0,0 mm 6,4 km/h (2 Bft) N-NO 22 10 min 1 UV-I 411 W/m 17,7 km/h (3 Bft)
14.11.2007 12:20 3,1 C 79 % 1011,0 hPa 0,0 mm 4,8 km/h (1 Bft) N-NO 22 10 min 1 UV-I 454 W/m 19,3 km/h (3 Bft)
14.11.2007 12:30 2,8 C 81 % 1011,1 hPa 0,0 mm 4,8 km/h (1 Bft) N-NW 337 10 min 1 UV-I 403 W/m 16,1 km/h (3 Bft)
14.11.2007 12:40 2,7 C 80 % 1011,2 hPa 0,0 mm 4,8 km/h (1 Bft) N 360 0 min 1 UV-I 128 W/m 14,5 km/h (3 Bft)
14.11.2007 12:50 2,6 C 80 % 1011,2 hPa 0,0 mm 3,2 km/h (1 Bft) N-NO 22 0 min 1 UV-I 149 W/m 8,0 km/h (2 Bft)
14.11.2007 13:00 2,8 C 80 % 1011,3 hPa 0,0 mm 3,2 km/h (1 Bft) N-NO 22 0 min 1 UV-I 183 W/m 11,3 km/h (2 Bft)
14.11.2007 13:10 2,9 C 78 % 1011,5 hPa 0,0 mm 6,4 km/h (2 Bft) N 360 0 min 0 UV-I 141 W/m 24,1 km/h (4 Bft)
14.11.2007 13:20 2,8 C 79 % 1011,6 hPa 0,0 mm 6,4 km/h (2 Bft) N-NO 22 0 min 1 UV-I 128 W/m 17,7 km/h (3 Bft)
14.11.2007 13:30 2,8 C 78 % 1011,7 hPa 0,0 mm 4,8 km/h (1 Bft) N-NO 22 10 min 1 UV-I 355 W/m 11,3 km/h (2 Bft)
14.11.2007 13:40 3,0 C 77 % 1011,8 hPa 0,0 mm 3,2 km/h (1 Bft) N 360 0 min 0 UV-I 146 W/m 9,7 km/h (2 Bft)
14.11.2007 13:50 3,0 C 76 % 1011,9 hPa 0,0 mm 6,4 km/h (2 Bft) N-NO 22 10 min 0 UV-I 192 W/m 16,1 km/h (3 Bft)
14.11.2007 14:00 3,0 C 76 % 1012,0 hPa 0,0 mm 4,8 km/h (1 Bft) N-NO 22 0 min 0 UV-I 102 W/m 19,3 km/h (3 Bft)
14.11.2007 14:10 2,9 C 79 % 1012,2 hPa 0,0 mm 4,8 km/h (1 Bft) N-NO 22 0 min 0 UV-I 81 W/m 16,1 km/h (3 Bft)
14.11.2007 14:20 2,8 C 79 % 1012,3 hPa 0,0 mm 4,8 km/h (1 Bft) N 360 0 min 0 UV-I 100 W/m 14,5 km/h (3 Bft)
14.11.2007 14:30 2,8 C 79 % 1012,3 hPa 0,0 mm 3,2 km/h (1 Bft) N 360 10 min 0 UV-I 174 W/m 8,0 km/h (2 Bft)
14.11.2007 14:40 3,2 C 77 % 1012,3 hPa 0,0 mm 3,2 km/h (1 Bft) N-NO 22 10 min 0 UV-I 153 W/m 8,0 km/h (2 Bft)
14.11.2007 14:50 3,3 C 76 % 1012,5 hPa 0,0 mm 6,4 km/h (2 Bft) N-NO 22 0 min 0 UV-I 54 W/m 16,1 km/h (3 Bft)
14.11.2007 15:00 2,9 C 78 % 1012,8 hPa 0,0 mm 4,8 km/h (1 Bft) N-NO 22 0 min 0 UV-I 23 W/m 17,7 km/h (3 Bft)
14.11.2007 15:10 2,5 C 79 % 1012,8 hPa 0,0 mm 3,2 km/h (1 Bft) N 360 0 min 0 UV-I 90 W/m 9,7 km/h (2 Bft)
14.11.2007 15:20 2,4 C 80 % 1012,8 hPa 0,0 mm 3,2 km/h (1 Bft) N-NO 22 0 min 0 UV-I 70 W/m 9,7 km/h (2 Bft)
14.11.2007 15:30 2,4 C 80 % 1013,0 hPa 0,0 mm 1,6 km/h (1 Bft) N 360 0 min 0 UV-I 67 W/m 6,4 km/h (2 Bft)
14.11.2007 15:40 2,6 C 79 % 1013,2 hPa 0,0 mm 1,6 km/h (1 Bft) N 360 10 min 0 UV-I 74 W/m 8,0 km/h (2 Bft)
14.11.2007 15:50 2,8 C 77 % 1013,2 hPa 0,0 mm 4,8 km/h (1 Bft) N 360 10 min 0 UV-I 72 W/m 14,5 km/h (3 Bft)
14.11.2007 16:00 2,8 C 77 % 1013,3 hPa 0,0 mm 3,2 km/h (1 Bft) N-NO 22 10 min 0 UV-I 42 W/m 12,9 km/h (3 Bft)
14.11.2007 16:10 2,8 C 77 % 1013,3 hPa 0,0 mm 4,8 km/h (1 Bft) N 360 0 min 0 UV-I 19 W/m 14,5 km/h (3 Bft)
14.11.2007 16:20 2,7 C 78 % 1013,3 hPa 0,0 mm 3,2 km/h (1 Bft) N 360 0 min 0 UV-I 11 W/m 9,7 km/h (2 Bft)
14.11.2007 16:30 2,6 C 79 % 1013,4 hPa 0,0 mm 1,6 km/h (1 Bft) N-NO 22 0 min 0 UV-I 9 W/m 6,4 km/h (2 Bft)
14.11.2007 16:40 2,4 C 79 % 1013,6 hPa 0,0 mm 3,2 km/h (1 Bft) N 360 0 min 0 UV-I 5 W/m 8,0 km/h (2 Bft)
14.11.2007 16:50 2,3 C 79 % 1013,6 hPa 0,0 mm 3,2 km/h (1 Bft) N 360 0 min 0 UV-I 0 W/m 11,3 km/h (2 Bft)
14.11.2007 17:00 2,2 C 79 % 1013,9 hPa 0,0 mm 3,2 km/h (1 Bft) N-NO 22 0 min 0 UV-I 0 W/m 9,7 km/h (2 Bft)
14.11.2007 17:10 2,0 C 78 % 1014,0 hPa 0,0 mm 1,6 km/h (1 Bft) N 360 0 min 0 UV-I 0 W/m 9,7 km/h (2 Bft)
14.11.2007 17:20 1,8 C 79 % 1014,2 hPa 0,0 mm 1,6 km/h (1 Bft) N 360 0 min 0 UV-I 0 W/m 6,4 km/h (2 Bft)
14.11.2007 17:30 1,7 C 79 % 1014,4 hPa 0,0 mm 1,6 km/h (1 Bft) N-NW 337 0 min 0 UV-I 0 W/m 4,8 km/h (1 Bft)
14.11.2007 17:40 1,6 C 81 % 1014,5 hPa 0,0 mm 3,2 km/h (1 Bft) N 360 0 min 0 UV-I 0 W/m 9,7 km/h (2 Bft)
14.11.2007 17:50 1,4 C 82 % 1014,7 hPa 0,0 mm 1,6 km/h (1 Bft) N 360 0 min 0 UV-I 0 W/m 8,0 km/h (2 Bft)
14.11.2007 18:00 1,3 C 82 % 1014,9 hPa 0,0 mm 1,6 km/h (1 Bft) NW 315 0 min 0 UV-I 0 W/m 8,0 km/h (2 Bft)
14.11.2007 18:10 1,3 C 83 % 1015,0 hPa 0,0 mm 1,6 km/h (1 Bft) NW 315 0 min 0 UV-I 0 W/m 8,0 km/h (2 Bft)
14.11.2007 18:20 1,3 C 83 % 1015,1 hPa 0,0 mm 3,2 km/h (1 Bft) W-NW 292 0 min 0 UV-I 0 W/m 8,0 km/h (2 Bft)
14.11.2007 18:30 1,3 C 84 % 1015,3 hPa 0,0 mm 1,6 km/h (1 Bft) NW 315 0 min 0 UV-I 0 W/m 8,0 km/h (2 Bft)
14.11.2007 18:40 1,3 C 85 % 1015,4 hPa 0,0 mm 1,6 km/h (1 Bft) NW 315 0 min 0 UV-I 0 W/m 8,0 km/h (2 Bft)
14.11.2007 18:50 1,3 C 85 % 1015,5 hPa 0,0 mm 1,6 km/h (1 Bft) W-NW 292 0 min 0 UV-I 0 W/m 8,0 km/h (2 Bft)
14.11.2007 19:00 1,4 C 86 % 1015,6 hPa 0,0 mm 1,6 km/h (1 Bft) N-NO 22 0 min 0 UV-I 0 W/m 6,4 km/h (2 Bft)
14.11.2007 19:10 1,4 C 87 % 1015,7 hPa 0,0 mm 1,6 km/h (1 Bft) NW 315 0 min 0 UV-I 0 W/m 4,8 km/h (1 Bft)
14.11.2007 19:20 1,4 C 86 % 1015,8 hPa 0,0 mm 1,6 km/h (1 Bft) W-NW 292 0 min 0 UV-I 0 W/m 6,4 km/h (2 Bft)
14.11.2007 19:30 1,3 C 87 % 1015,8 hPa 0,0 mm 1,6 km/h (1 Bft) W-NW 292 0 min 0 UV-I 0 W/m 11,3 km/h (2 Bft)
14.11.2007 19:40 1,3 C 87 % 1015,8 hPa 0,0 mm 1,6 km/h (1 Bft) N 360 0 min 0 UV-I 0 W/m 8,0 km/h (2 Bft)
14.11.2007 19:50 1,3 C 87 % 1015,9 hPa 0,0 mm 3,2 km/h (1 Bft) N 360 0 min 0 UV-I 0 W/m 9,7 km/h (2 Bft)
14.11.2007 20:00 1,3 C 87 % 1015,9 hPa 0,0 mm 3,2 km/h (1 Bft) N-NO 22 0 min 0 UV-I 0 W/m 11,3 km/h (2 Bft)
14.11.2007 20:10 1,3 C 87 % 1016,0 hPa 0,0 mm 3,2 km/h (1 Bft) N 360 0 min 0 UV-I 0 W/m 8,0 km/h (2 Bft)
14.11.2007 20:20 1,4 C 87 % 1016,1 hPa 0,0 mm 1,6 km/h (1 Bft) N 360 0 min 0 UV-I 0 W/m 6,4 km/h (2 Bft)
14.11.2007 20:30 1,4 C 87 % 1016,2 hPa 0,0 mm 1,6 km/h (1 Bft) N 360 0 min 0 UV-I 0 W/m 6,4 km/h (2 Bft)
14.11.2007 20:40 1,4 C 87 % 1016,2 hPa 0,0 mm 1,6 km/h (1 Bft) N-NW 337 0 min 0 UV-I 0 W/m 4,8 km/h (1 Bft)
14.11.2007 20:50 1,4 C 87 % 1016,3 hPa 0,0 mm 1,6 km/h (1 Bft) W-NW 292 0 min 0 UV-I 0 W/m 6,4 km/h (2 Bft)
14.11.2007 21:00 1,4 C 87 % 1016,4 hPa 0,0 mm 1,6 km/h (1 Bft) N-NO 22 0 min 0 UV-I 0 W/m 6,4 km/h (2 Bft)
14.11.2007 21:10 1,4 C 87 % 1016,4 hPa 0,0 mm 1,6 km/h (1 Bft) NW 315 0 min 0 UV-I 0 W/m 6,4 km/h (2 Bft)
14.11.2007 21:20 1,4 C 87 % 1016,5 hPa 0,0 mm 1,6 km/h (1 Bft) N 360 0 min 0 UV-I 0 W/m 8,0 km/h (2 Bft)
14.11.2007 21:30 1,3 C 87 % 1016,6 hPa 0,0 mm 3,2 km/h (1 Bft) N-NO 22 0 min 0 UV-I 0 W/m 9,7 km/h (2 Bft)
14.11.2007 21:40 1,3 C 87 % 1016,7 hPa 0,0 mm 1,6 km/h (1 Bft) N 360 0 min 0 UV-I 0 W/m 4,8 km/h (1 Bft)
14.11.2007 21:50 1,3 C 87 % 1016,9 hPa 0,0 mm 1,6 km/h (1 Bft) N 360 0 min 0 UV-I 0 W/m 6,4 km/h (2 Bft)
14.11.2007 22:00 1,3 C 87 % 1016,9 hPa 0,0 mm 3,2 km/h (1 Bft) N-NO 22 0 min 0 UV-I 0 W/m 9,7 km/h (2 Bft)
14.11.2007 22:10 1,3 C 88 % 1017,0 hPa 0,0 mm 3,2 km/h (1 Bft) N-NO 22 0 min 0 UV-I 0 W/m 9,7 km/h (2 Bft)
14.11.2007 22:20 1,3 C 88 % 1017,2 hPa 0,0 mm 3,2 km/h (1 Bft) N 360 0 min 0 UV-I 0 W/m 8,0 km/h (2 Bft)
14.11.2007 22:30 1,3 C 88 % 1017,3 hPa 0,0 mm 3,2 km/h (1 Bft) N 360 0 min 0 UV-I 0 W/m 9,7 km/h (2 Bft)
14.11.2007 22:40 1,3 C 88 % 1017,4 hPa 0,0 mm 3,2 km/h (1 Bft) N 360 0 min 0 UV-I 0 W/m 9,7 km/h (2 Bft)
14.11.2007 22:50 1,3 C 88 % 1017,6 hPa 0,0 mm 3,2 km/h (1 Bft) N 360 0 min 0 UV-I 0 W/m 11,3 km/h (2 Bft)
14.11.2007 23:00 1,3 C 88 % 1017,7 hPa 0,0 mm 3,2 km/h (1 Bft) N 360 0 min 0 UV-I 0 W/m 9,7 km/h (2 Bft)
14.11.2007 23:10 1,3 C 89 % 1017,9 hPa 0,0 mm 3,2 km/h (1 Bft) N 360 0 min 0 UV-I 0 W/m 9,7 km/h (2 Bft)
14.11.2007 23:20 1,3 C 89 % 1018,0 hPa 0,0 mm 3,2 km/h (1 Bft) N 360 0 min 0 UV-I 0 W/m 8,0 km/h (2 Bft)
14.11.2007 23:30 1,3 C 89 % 1018,1 hPa 0,0 mm 3,2 km/h (1 Bft) N-NO 22 0 min 0 UV-I 0 W/m 11,3 km/h (2 Bft)
14.11.2007 23:40 1,3 C 89 % 1018,1 hPa 0,0 mm 4,8 km/h (1 Bft) N 360 0 min 0 UV-I 0 W/m 11,3 km/h (2 Bft)
14.11.2007 23:50 1,3 C 89 % 1018,3 hPa 0,0 mm 3,2 km/h (1 Bft) N-NO 22 0 min 0 UV-I 0 W/m 9,7 km/h (2 Bft)
_ Min-Zeit 01:40 13:50 00:00 - 01:10 - - - - - 01:10
Minimum _ 0,4 C 76 % 1002,3 hPa - 0,0 km/h (0 Bft) - - - - - 1,6 km/h (1 Bft)
_ Max-Zeit 12:20 02:30 23:50 08:00 12:00 - - 10:30 11:40 12:20 13:10
Maximum _ 3,3 C 93 % 1018,3 hPa 0,3 mm 9,7 km/h
N (2 Bft)
- - 10 min 1 UV-I 454 W/m 24,1 km/h
N (4 Bft)
Durchschnitt _ 1,7 C 87 % 1010,2 hPa #0,3 mm 3,2 km/h (1 Bft) N - #3:00 h 1 UV-I 138 W/m 10,2 km/h (2 Bft)